createdAt,value
2022-12-13T00:01:27.969Z,26.45
2022-12-13T00:04:00.238Z,31.00
2022-12-13T00:06:27.806Z,32.35
2022-12-13T00:08:55.289Z,32.75
2022-12-13T00:11:22.681Z,29.80
2022-12-13T00:13:50.463Z,28.08
2022-12-13T00:16:19.173Z,32.92
2022-12-13T00:18:50.715Z,45.28
2022-12-13T00:21:19.406Z,41.97
2022-12-13T00:23:47.208Z,36.30
2022-12-13T00:26:19.961Z,35.85
2022-12-13T00:28:49.402Z,32.17
2022-12-13T00:34:05.391Z,35.38
2022-12-13T00:36:35.862Z,42.93
2022-12-13T00:39:03.649Z,39.25
2022-12-13T00:41:33.134Z,38.97
2022-12-13T00:44:02.864Z,41.33
2022-12-13T00:46:30.690Z,38.08
2022-12-13T00:48:59.930Z,43.42
2022-12-13T00:51:28.506Z,32.13
2022-12-13T00:53:56.162Z,38.97
2022-12-13T00:56:25.734Z,39.75
2022-12-13T00:58:53.319Z,39.13
2022-12-13T01:01:28.481Z,30.30
2022-12-13T01:03:57.850Z,29.30
2022-12-13T01:06:36.832Z,27.92
2022-12-13T01:09:05.606Z,26.10
2022-12-13T01:11:33.790Z,29.17
2022-12-13T01:14:01.365Z,29.27
2022-12-13T01:16:29.158Z,25.02
2022-12-13T01:18:58.050Z,35.58
2022-12-13T01:21:25.635Z,31.10
2022-12-13T01:23:53.274Z,35.92
2022-12-13T01:26:21.391Z,33.72
2022-12-13T01:28:48.847Z,31.05
2022-12-13T01:31:19.190Z,30.80
2022-12-13T01:33:47.126Z,23.73
2022-12-13T01:36:19.782Z,27.23
2022-12-13T01:38:58.550Z,28.45
2022-12-13T01:41:27.434Z,26.23
2022-12-13T01:43:57.350Z,25.83
2022-12-13T01:46:25.143Z,26.48
2022-12-13T01:48:58.501Z,21.83
2022-12-13T01:51:32.798Z,21.15
2022-12-13T01:54:00.226Z,23.55
2022-12-13T01:56:34.457Z,20.35
2022-12-13T01:59:04.302Z,23.95
2022-12-13T02:01:31.872Z,20.77
2022-12-13T02:03:59.361Z,28.50
2022-12-13T02:06:33.770Z,27.70
2022-12-13T02:09:01.891Z,20.45
2022-12-13T02:11:30.371Z,24.20
2022-12-13T02:13:57.799Z,26.17
2022-12-13T02:16:50.390Z,21.48
2022-12-13T02:19:17.733Z,21.13
2022-12-13T02:21:51.979Z,21.42
2022-12-13T02:24:22.332Z,28.05
2022-12-13T02:27:08.684Z,25.17
2022-12-13T02:29:52.133Z,26.27
2022-12-13T02:32:36.636Z,20.35
2022-12-13T02:35:13.897Z,20.05
2022-12-13T02:38:04.232Z,19.17
2022-12-13T02:40:40.492Z,20.42
2022-12-13T02:43:26.004Z,18.83
2022-12-13T02:46:01.690Z,26.13
2022-12-13T02:48:32.161Z,29.65
2022-12-13T02:50:59.909Z,29.70
2022-12-13T02:53:27.336Z,33.42
2022-12-13T02:55:55.372Z,39.33
2022-12-13T02:58:24.457Z,30.85
2022-12-13T03:00:58.680Z,25.95
2022-12-13T03:03:36.190Z,49.10
2022-12-13T03:06:33.677Z,59.28
2022-12-13T03:09:26.247Z,55.30
2022-12-13T03:12:36.625Z,39.85
2022-12-13T03:15:19.299Z,34.88
2022-12-13T03:18:17.270Z,33.75
2022-12-13T03:20:52.388Z,36.60
2022-12-13T03:23:20.363Z,32.70
2022-12-13T03:25:49.701Z,35.85
2022-12-13T03:28:17.371Z,31.23
2022-12-13T03:30:44.747Z,28.02
2022-12-13T03:33:12.208Z,25.42
2022-12-13T03:35:44.681Z,25.77
2022-12-13T03:38:22.555Z,24.58
2022-12-13T03:40:55.301Z,25.92
2022-12-13T03:43:23.207Z,25.83
2022-12-13T03:45:52.291Z,20.88
2022-12-13T03:48:22.162Z,31.42
2022-12-13T03:50:50.892Z,53.20
2022-12-13T03:53:22.801Z,27.48
2022-12-13T03:56:01.460Z,25.25
2022-12-13T03:58:36.965Z,30.77
2022-12-13T04:01:06.858Z,22.27
2022-12-13T04:03:34.870Z,19.45
2022-12-13T04:06:02.561Z,26.45
2022-12-13T04:08:30.165Z,25.58
2022-12-13T04:10:57.538Z,29.98
2022-12-13T04:13:35.166Z,23.27
2022-12-13T04:16:03.422Z,22.30
2022-12-13T04:18:31.241Z,25.95
2022-12-13T04:20:58.675Z,23.40
2022-12-13T04:23:26.841Z,21.13
2022-12-13T04:25:54.385Z,20.88
2022-12-13T04:28:22.953Z,22.55
2022-12-13T04:30:52.635Z,22.70
2022-12-13T04:33:22.619Z,21.38
2022-12-13T04:35:50.377Z,23.35
2022-12-13T04:38:17.985Z,21.02
2022-12-13T04:40:45.408Z,15.02
2022-12-13T04:43:12.778Z,24.15
2022-12-13T04:45:41.006Z,25.15
2022-12-13T04:48:08.604Z,30.73
2022-12-13T04:50:36.245Z,24.33
2022-12-13T04:53:03.719Z,24.80
2022-12-13T04:55:31.184Z,23.45
2022-12-13T04:57:58.629Z,26.65
2022-12-13T05:00:26.111Z,25.42
2022-12-13T05:02:53.741Z,32.10
2022-12-13T05:05:21.284Z,27.35
2022-12-13T05:07:48.749Z,29.85
2022-12-13T05:10:35.867Z,25.10
2022-12-13T05:13:04.197Z,25.88
2022-12-13T05:15:31.765Z,21.05
2022-12-13T05:18:09.793Z,24.83
2022-12-13T05:20:39.547Z,19.85
2022-12-13T05:23:07.369Z,24.15
2022-12-13T05:25:37.239Z,23.65
2022-12-13T05:28:09.036Z,23.05
2022-12-13T05:30:53.428Z,24.67
2022-12-13T05:33:20.852Z,22.63
2022-12-13T05:35:48.248Z,19.50
2022-12-13T05:38:15.649Z,24.13
2022-12-13T05:40:43.135Z,27.73
2022-12-13T05:43:21.973Z,21.52
2022-12-13T05:45:50.508Z,25.63
2022-12-13T05:48:24.583Z,21.60
2022-12-13T05:51:10.897Z,20.80
2022-12-13T05:53:40.772Z,19.45
2022-12-13T05:56:08.787Z,22.45
2022-12-13T05:58:37.322Z,19.15
2022-12-13T06:01:13.069Z,24.15
2022-12-13T06:03:41.390Z,22.73
2022-12-13T06:06:10.046Z,21.45
2022-12-13T06:08:37.793Z,19.80
2022-12-13T06:11:11.709Z,24.17
2022-12-13T06:13:43.810Z,26.23
2022-12-13T06:16:23.708Z,22.70
2022-12-13T06:18:59.367Z,28.83
2022-12-13T06:21:43.833Z,23.92
2022-12-13T06:24:15.308Z,24.58
2022-12-13T06:26:42.753Z,22.83
2022-12-13T06:29:24.040Z,36.30
2022-12-13T06:31:54.223Z,28.08
2022-12-13T06:34:21.660Z,28.55
2022-12-13T06:36:49.041Z,34.25
2022-12-13T06:39:16.504Z,25.38
2022-12-13T06:41:43.911Z,33.58
2022-12-13T06:44:11.551Z,27.73
2022-12-13T06:46:40.948Z,25.10
2022-12-13T06:49:08.626Z,25.05
2022-12-13T06:51:36.395Z,23.63
2022-12-13T06:54:03.857Z,31.75
2022-12-13T06:56:31.989Z,34.13
2022-12-13T06:59:02.042Z,30.33
2022-12-13T07:01:37.391Z,30.47
2022-12-13T07:04:29.252Z,24.23
2022-12-13T07:07:01.106Z,32.75
2022-12-13T07:09:31.029Z,25.52
2022-12-13T07:11:58.862Z,41.20
2022-12-13T07:14:26.993Z,36.75
2022-12-13T07:17:02.850Z,45.47
2022-12-13T07:19:35.539Z,43.88
2022-12-13T07:22:05.853Z,43.67
2022-12-13T07:24:36.725Z,34.70
2022-12-13T07:27:04.272Z,32.22
2022-12-13T07:29:32.152Z,32.33
2022-12-13T07:32:01.730Z,40.90
2022-12-13T07:34:30.766Z,42.00
2022-12-13T07:36:58.325Z,35.78
2022-12-13T07:39:28.634Z,43.83
2022-12-13T07:41:56.408Z,32.55
2022-12-13T07:44:24.600Z,38.08
2022-12-13T07:46:52.216Z,33.08
2022-12-13T07:49:20.948Z,31.08
2022-12-13T07:51:49.256Z,37.60
2022-12-13T07:54:16.911Z,39.63
2022-12-13T07:56:44.585Z,35.42
2022-12-13T07:59:13.550Z,34.70
2022-12-13T08:01:40.986Z,21.30
2022-12-13T08:04:08.505Z,32.78
2022-12-13T08:06:37.090Z,28.20
2022-12-13T08:09:06.150Z,34.65
2022-12-13T08:11:34.982Z,27.75
2022-12-13T08:14:02.578Z,22.08
2022-12-13T08:16:30.723Z,22.52
2022-12-13T08:19:03.028Z,23.83
2022-12-13T08:21:54.707Z,22.70
2022-12-13T08:26:51.156Z,27.27
2022-12-13T08:29:23.361Z,20.90
2022-12-13T08:32:05.995Z,20.00
2022-12-13T08:34:33.456Z,24.35
2022-12-13T08:37:02.214Z,23.40
2022-12-13T08:39:34.592Z,20.98
2022-12-13T08:42:18.941Z,19.85
2022-12-13T08:44:49.137Z,24.83
2022-12-13T08:47:23.267Z,24.20
2022-12-13T08:49:55.199Z,30.65
2022-12-13T08:52:23.877Z,21.90
2022-12-13T08:54:51.632Z,20.85
2022-12-13T08:57:19.173Z,25.38
2022-12-13T09:00:01.461Z,27.50
2022-12-13T09:02:30.118Z,20.55
2022-12-13T09:05:09.580Z,19.98
2022-12-13T09:07:44.049Z,21.58
2022-12-13T09:10:25.556Z,21.50
2022-12-13T09:13:02.410Z,18.02
2022-12-13T09:15:34.237Z,20.98
2022-12-13T09:18:04.914Z,23.80
2022-12-13T09:20:41.231Z,20.63
2022-12-13T09:23:14.187Z,18.10
2022-12-13T09:25:55.901Z,18.95
2022-12-13T09:28:23.457Z,19.58
2022-12-13T09:30:52.085Z,16.23
2022-12-13T09:33:29.868Z,21.27
2022-12-13T09:36:01.378Z,16.17
2022-12-13T09:38:29.690Z,18.10
2022-12-13T09:40:58.431Z,21.63
2022-12-13T09:43:33.454Z,19.05
2022-12-13T09:46:04.214Z,30.05
2022-12-13T09:48:42.252Z,22.38
2022-12-13T09:51:28.703Z,18.25
2022-12-13T09:53:59.405Z,20.67
2022-12-13T09:56:26.944Z,20.75
2022-12-13T09:58:56.334Z,19.55
2022-12-13T10:01:23.951Z,23.38
2022-12-13T10:03:53.224Z,21.90
2022-12-13T10:06:23.875Z,26.00
2022-12-13T10:08:57.415Z,27.30
2022-12-13T10:11:32.646Z,28.95
2022-12-13T10:14:12.661Z,23.70
2022-12-13T10:16:47.891Z,26.83
2022-12-13T10:19:29.551Z,21.92
2022-12-13T10:22:01.481Z,22.58
2022-12-13T10:25:06.031Z,32.53
2022-12-13T10:27:40.521Z,28.83
2022-12-13T10:30:28.504Z,28.05
2022-12-13T10:33:01.368Z,29.15
2022-12-13T10:35:38.769Z,47.83
2022-12-13T10:38:10.405Z,38.67
2022-12-13T10:40:45.386Z,121.93
2022-12-13T10:43:23.578Z,41.47
2022-12-13T10:45:57.989Z,40.63
2022-12-13T10:48:38.907Z,80.88
2022-12-13T10:51:09.190Z,78.10
2022-12-13T10:53:47.306Z,59.50
2022-12-13T10:56:23.093Z,41.28
2022-12-13T10:59:13.386Z,33.80
2022-12-13T11:01:42.675Z,32.00
2022-12-13T11:04:43.039Z,33.25
2022-12-13T11:07:24.959Z,29.50
2022-12-13T11:09:53.210Z,27.00
2022-12-13T11:12:22.900Z,25.35
2022-12-13T11:15:02.017Z,25.00
2022-12-13T11:17:30.705Z,35.85
2022-12-13T11:19:59.811Z,48.65
2022-12-13T11:22:31.740Z,35.05
2022-12-13T11:25:01.624Z,31.98
2022-12-13T11:27:48.391Z,35.85
2022-12-13T11:30:21.109Z,33.63
2022-12-13T11:33:06.773Z,33.78
2022-12-13T11:35:34.214Z,43.85
2022-12-13T11:38:17.397Z,38.05
2022-12-13T11:40:47.028Z,42.25
2022-12-13T11:43:29.155Z,44.33
2022-12-13T11:45:57.816Z,34.25
2022-12-13T11:48:47.533Z,32.67
2022-12-13T11:51:17.999Z,25.10
2022-12-13T11:54:01.429Z,27.33
2022-12-13T11:56:33.287Z,21.15
2022-12-13T11:59:16.210Z,31.30
2022-12-13T12:01:52.126Z,52.00
2022-12-13T12:07:32.248Z,64.70
2022-12-13T12:10:14.236Z,41.75
2022-12-13T12:12:44.204Z,35.17
2022-12-13T12:15:19.255Z,92.18
2022-12-13T12:17:57.943Z,75.88
2022-12-13T12:20:44.531Z,84.82
2022-12-13T12:23:52.425Z,57.10
2022-12-13T12:26:24.920Z,28.50
2022-12-13T12:29:24.078Z,23.73
2022-12-13T12:32:24.133Z,20.23
2022-12-13T12:35:02.610Z,18.10
2022-12-13T12:38:04.937Z,16.35
2022-12-13T12:41:14.342Z,15.48
2022-12-13T12:43:33.056Z,18.15
2022-12-13T12:46:16.116Z,13.85
2022-12-13T12:49:02.905Z,18.23
2022-12-13T12:51:36.681Z,16.23
2022-12-13T12:54:33.125Z,17.27
2022-12-13T12:57:11.034Z,16.27
2022-12-13T12:59:48.510Z,17.25
2022-12-13T13:02:34.311Z,14.85
2022-12-13T13:05:14.719Z,11.73
2022-12-13T13:07:51.416Z,11.57
2022-12-13T13:10:26.879Z,15.15
2022-12-13T13:13:12.123Z,16.02
2022-12-13T13:15:42.812Z,16.00
2022-12-13T13:18:45.896Z,12.93
2022-12-13T13:21:46.247Z,16.52
2022-12-13T13:28:31.211Z,10.80
2022-12-13T13:31:06.452Z,11.13
2022-12-13T13:33:52.387Z,10.82
2022-12-13T13:36:38.377Z,12.40
2022-12-13T13:39:11.707Z,10.15
2022-12-13T13:42:02.132Z,6.88
2022-12-13T13:44:48.260Z,7.78
2022-12-13T13:47:22.337Z,6.57
2022-12-13T13:50:02.350Z,7.45
2022-12-13T13:53:01.280Z,7.78
2022-12-13T13:55:31.580Z,6.75
2022-12-13T13:58:35.687Z,7.43
2022-12-13T14:01:13.638Z,5.68
2022-12-13T14:03:44.427Z,12.60
2022-12-13T14:06:18.274Z,7.13
2022-12-13T14:09:22.595Z,6.22
2022-12-13T14:12:14.489Z,9.05
2022-12-13T14:15:22.729Z,11.40
2022-12-13T14:18:21.742Z,21.55
2022-12-13T14:21:01.160Z,32.53
2022-12-13T14:23:46.539Z,22.40
2022-12-13T14:26:28.952Z,11.32
2022-12-13T14:28:57.689Z,14.40
2022-12-13T14:31:44.030Z,10.48
2022-12-13T14:34:20.182Z,16.58
2022-12-13T14:37:04.436Z,11.15
2022-12-13T14:39:34.765Z,9.80
2022-12-13T14:42:03.140Z,9.85
2022-12-13T14:44:36.259Z,13.95
2022-12-13T14:47:07.573Z,10.02
2022-12-13T14:49:36.508Z,10.30
2022-12-13T14:52:09.363Z,9.93
2022-12-13T14:54:47.316Z,10.38
2022-12-13T14:57:22.479Z,8.43
2022-12-13T14:59:55.080Z,10.25
2022-12-13T15:02:31.519Z,10.15
2022-12-13T15:05:04.563Z,10.57
2022-12-13T15:07:39.462Z,7.05
2022-12-13T15:10:16.173Z,10.85
2022-12-13T15:12:43.608Z,7.72
2022-12-13T15:15:20.925Z,14.27
2022-12-13T15:17:48.356Z,16.98
2022-12-13T15:20:27.721Z,15.27
2022-12-13T15:23:03.518Z,11.77
2022-12-13T15:25:32.601Z,13.02
2022-12-13T15:27:59.876Z,15.80
2022-12-13T15:30:30.796Z,188.23
2022-12-13T15:33:22.901Z,25.25
2022-12-13T15:36:17.922Z,18.65
2022-12-13T15:38:57.324Z,13.20
2022-12-13T15:41:32.899Z,16.40
2022-12-13T15:44:01.697Z,19.67
2022-12-13T15:46:30.832Z,18.95
2022-12-13T15:48:59.782Z,14.75
2022-12-13T15:51:30.422Z,16.77
2022-12-13T15:54:18.711Z,8.90
2022-12-13T15:57:25.046Z,12.13
2022-12-13T16:00:15.551Z,12.32
2022-12-13T16:02:55.289Z,12.45
2022-12-13T16:05:25.922Z,10.82
2022-12-13T16:07:56.686Z,10.02
2022-12-13T16:10:25.066Z,9.80
2022-12-13T16:12:59.026Z,10.10
2022-12-13T16:15:29.152Z,13.55
2022-12-13T16:18:26.397Z,11.63
2022-12-13T16:26:20.960Z,9.52
2022-12-13T17:18:35.341Z,21.05
2022-12-13T17:21:09.578Z,39.78
2022-12-13T17:23:36.905Z,16.40
2022-12-13T17:26:08.094Z,10.95
2022-12-13T17:28:35.613Z,16.02
2022-12-13T17:31:12.109Z,10.25
2022-12-13T17:38:08.173Z,8.70
2022-12-13T17:40:35.850Z,7.47
2022-12-13T17:43:03.063Z,9.32
2022-12-13T17:45:30.849Z,10.13
2022-12-13T17:47:58.126Z,8.38
2022-12-13T17:50:25.417Z,14.85
2022-12-13T17:52:55.120Z,9.07
2022-12-13T17:55:22.456Z,9.00
2022-12-13T17:57:49.801Z,12.05
2022-12-13T18:02:55.533Z,7.63
2022-12-13T18:05:26.259Z,9.35
2022-12-13T18:07:53.708Z,10.40
2022-12-13T18:10:26.251Z,10.23
2022-12-13T18:12:57.050Z,10.15
2022-12-13T18:15:24.271Z,20.77
2022-12-13T18:20:39.162Z,9.77
2022-12-13T18:23:07.057Z,10.05
2022-12-13T18:25:34.273Z,12.68
2022-12-13T18:28:01.530Z,8.15
2022-12-13T18:30:31.471Z,10.90
2022-12-13T18:32:58.972Z,10.10
2022-12-13T18:35:26.221Z,10.35
2022-12-13T18:37:53.912Z,14.35
2022-12-13T18:40:21.833Z,9.18
2022-12-13T18:42:49.256Z,16.40
2022-12-13T18:45:17.803Z,13.20
2022-12-13T18:47:45.174Z,17.80
2022-12-13T18:50:12.560Z,13.35
2022-12-13T18:52:39.922Z,14.10
2022-12-13T18:55:07.622Z,16.55
2022-12-13T18:57:34.877Z,13.40
2022-12-13T19:00:02.335Z,19.05
2022-12-13T19:02:34.473Z,12.27
2022-12-13T19:05:02.174Z,15.65
2022-12-13T19:07:30.745Z,12.30
2022-12-13T19:09:58.009Z,11.48
2022-12-13T19:12:25.350Z,12.52
2022-12-13T19:14:54.677Z,13.30
2022-12-13T19:17:22.944Z,9.97
2022-12-13T19:19:50.238Z,11.63
2022-12-13T19:22:17.455Z,19.27
2022-12-13T19:24:45.306Z,16.48
2022-12-13T19:27:12.575Z,12.88
2022-12-13T19:29:39.866Z,14.18
2022-12-13T19:32:07.161Z,9.73
2022-12-13T19:34:34.521Z,11.10
2022-12-13T19:37:06.311Z,10.40
2022-12-13T19:39:34.015Z,12.15
2022-12-13T19:42:01.264Z,7.80
2022-12-13T19:44:28.507Z,17.27
2022-12-13T19:46:56.264Z,11.98
2022-12-13T19:49:23.526Z,12.13
2022-12-13T19:51:51.103Z,12.40
2022-12-13T19:54:18.427Z,10.70
2022-12-13T19:56:45.761Z,7.53
2022-12-13T19:59:13.327Z,10.45
2022-12-13T20:01:41.506Z,11.48
2022-12-13T20:04:09.040Z,11.30
2022-12-13T20:06:36.822Z,9.18
2022-12-13T20:09:04.059Z,12.95
2022-12-13T20:11:32.134Z,11.32
2022-12-13T20:13:59.550Z,9.18
2022-12-13T20:16:28.241Z,12.15
2022-12-13T20:18:56.504Z,8.73
2022-12-13T20:21:23.910Z,8.02
2022-12-13T20:23:51.417Z,10.43
2022-12-13T20:26:20.660Z,10.15
2022-12-13T20:28:48.961Z,11.63
2022-12-13T20:31:21.012Z,10.18
2022-12-13T20:33:48.470Z,10.68
2022-12-13T20:36:24.736Z,14.73
2022-12-13T20:38:55.844Z,14.35
2022-12-13T20:41:24.623Z,10.98
2022-12-13T20:43:52.878Z,12.23
2022-12-13T20:46:20.490Z,15.07
2022-12-13T20:48:48.448Z,8.77
2022-12-13T20:51:17.503Z,12.38
2022-12-13T20:53:45.764Z,10.88
2022-12-13T20:56:16.100Z,10.75
2022-12-13T20:58:43.478Z,11.68
2022-12-13T21:01:18.423Z,10.63
2022-12-13T21:03:45.881Z,18.40
2022-12-13T21:06:13.285Z,11.77
2022-12-13T21:08:52.698Z,9.65
2022-12-13T21:11:25.171Z,11.85
2022-12-13T21:13:52.308Z,11.82
2022-12-13T21:16:19.788Z,13.35
2022-12-13T21:18:47.235Z,10.23
2022-12-13T21:21:14.480Z,12.90
2022-12-13T21:23:41.792Z,11.82
2022-12-13T21:26:09.578Z,8.57
2022-12-13T21:28:36.801Z,12.40
2022-12-13T21:31:09.044Z,15.38
2022-12-13T21:33:37.006Z,12.77
2022-12-13T21:36:15.407Z,8.82
2022-12-13T21:38:43.035Z,9.70
2022-12-13T21:41:10.482Z,10.65
2022-12-13T21:43:38.056Z,15.13
2022-12-13T21:46:08.895Z,10.30
2022-12-13T21:48:37.348Z,13.07
2022-12-13T21:51:04.885Z,13.60
2022-12-13T21:53:32.199Z,7.63
2022-12-13T21:56:18.037Z,7.57
2022-12-13T21:59:04.100Z,6.57
2022-12-13T22:01:51.576Z,8.48
2022-12-13T22:04:19.479Z,6.07
2022-12-13T22:06:46.853Z,6.38
2022-12-13T22:09:14.278Z,8.73
2022-12-13T22:11:41.652Z,7.68
2022-12-13T22:14:09.243Z,8.85
2022-12-13T22:16:36.991Z,11.68
2022-12-13T22:19:05.022Z,11.52
2022-12-13T22:21:32.343Z,8.50
2022-12-13T22:23:59.735Z,6.00
2022-12-13T22:26:27.045Z,10.13
2022-12-13T22:28:54.267Z,9.73
2022-12-13T22:31:25.294Z,9.25
2022-12-13T22:33:57.027Z,6.70
2022-12-13T22:36:24.425Z,8.55
2022-12-13T22:38:52.454Z,9.40
2022-12-13T22:41:19.676Z,7.78
2022-12-13T22:43:46.882Z,7.47
2022-12-13T22:46:17.645Z,8.77
2022-12-13T22:48:45.017Z,7.53
2022-12-13T22:51:16.860Z,9.63
2022-12-13T22:53:45.175Z,6.15
2022-12-13T22:56:19.965Z,9.70
2022-12-13T22:58:47.494Z,10.27
2022-12-13T23:01:16.734Z,14.05
2022-12-13T23:03:44.594Z,9.18
2022-12-13T23:06:19.757Z,11.35
2022-12-13T23:08:50.616Z,10.30
2022-12-13T23:11:36.352Z,8.50
2022-12-13T23:14:05.248Z,8.07
2022-12-13T23:16:33.250Z,11.13
2022-12-13T23:19:17.255Z,10.57
2022-12-13T23:21:48.520Z,11.00
2022-12-13T23:24:16.330Z,14.20
2022-12-13T23:26:43.619Z,9.43
2022-12-13T23:29:11.033Z,8.90
2022-12-13T23:31:40.216Z,14.18
2022-12-13T23:34:07.581Z,14.88
2022-12-13T23:36:34.927Z,12.15
2022-12-13T23:39:02.922Z,11.88
2022-12-13T23:41:33.833Z,14.50
2022-12-13T23:44:01.629Z,16.38
2022-12-13T23:46:30.593Z,12.98
2022-12-13T23:49:01.368Z,14.82
2022-12-13T23:51:28.724Z,13.02
2022-12-13T23:53:56.076Z,14.82
2022-12-13T23:56:23.528Z,10.90
2022-12-13T23:58:50.809Z,12.35
